Terminal Aerodrome Forecast
Issued by NWS Omaha/Valley, NE

Home | Current Version | Previous Version | Graphics & Text | Print | Product List | Glossary On
Versions: 1 2 3 4 5 6 7 8 9 10 11 12 13 14 15 16 17 18 19 20 21 22 23 24 25 26 27 28 29 30 31 32 33 34
000
FTUS43 KOAX 222211 AAB
TAFOFK
TAF AMD
KOFK 222211Z 2222/2318 01014KT P6SM BKN060
     FM230200 35011KT P6SM SCT080 SCT120
     FM231000 32008KT P6SM BKN100
     FM231400 32015G22KT P6SM SCT140=

USA.gov is the U.S. government's official web portal to all federal, state and local government web resources and services.